createdAt,value
2019-03-01T00:01:07.337Z,15.93
2019-03-01T00:03:37.282Z,15.75
2019-03-01T00:06:21.276Z,18.17
2019-03-01T00:09:19.722Z,17.85
2019-03-01T00:12:10.969Z,17.00
2019-03-01T00:14:51.409Z,14.87
2019-03-01T00:17:29.207Z,15.85
2019-03-01T00:20:16.117Z,13.93
2019-03-01T00:22:59.606Z,14.28
2019-03-01T00:25:37.182Z,15.58
2019-03-01T00:28:11.868Z,13.08
2019-03-01T00:30:55.487Z,14.23
2019-03-01T00:33:27.194Z,12.88
2019-03-01T00:36:22.652Z,12.53
2019-03-01T00:39:15.383Z,13.15
2019-03-01T00:42:15.467Z,16.40
2019-03-01T00:44:48.226Z,18.60
2019-03-01T00:47:17.038Z,16.30
2019-03-01T00:49:45.559Z,18.65
2019-03-01T00:52:14.106Z,16.12
2019-03-01T00:55:01.961Z,16.40
2019-03-01T00:57:30.413Z,18.25
2019-03-01T00:59:58.864Z,18.00
2019-03-01T01:02:27.225Z,18.02
2019-03-01T01:04:55.651Z,16.42
2019-03-01T01:07:24.096Z,21.30
2019-03-01T01:09:52.516Z,19.62
2019-03-01T01:12:20.906Z,19.92
2019-03-01T01:14:49.344Z,20.08
2019-03-01T01:17:17.840Z,18.77
2019-03-01T01:19:46.214Z,19.37
2019-03-01T01:22:14.648Z,19.77
2019-03-01T01:24:43.082Z,20.77
2019-03-01T01:27:11.540Z,18.30
2019-03-01T01:29:39.995Z,17.82
2019-03-01T01:32:08.605Z,15.90
2019-03-01T01:34:37.004Z,15.88
2019-03-01T01:37:05.515Z,17.07
2019-03-01T01:39:33.958Z,16.73
2019-03-01T01:42:02.405Z,19.65
2019-03-01T01:44:30.919Z,20.50
2019-03-01T01:46:59.389Z,21.40
2019-03-01T01:49:27.835Z,23.75
2019-03-01T01:51:56.307Z,23.05
2019-03-01T01:54:24.728Z,22.37
2019-03-01T01:56:53.162Z,18.32
2019-03-01T01:59:21.530Z,18.02
2019-03-01T02:01:49.914Z,16.87
2019-03-01T02:04:18.242Z,19.00
2019-03-01T02:06:46.678Z,18.82
2019-03-01T02:09:21.939Z,17.80
2019-03-01T02:11:50.457Z,19.20
2019-03-01T02:14:18.893Z,18.07
2019-03-01T02:16:47.410Z,17.52
2019-03-01T02:19:15.938Z,19.55
2019-03-01T02:21:44.355Z,26.65
2019-03-01T02:24:12.754Z,22.85
2019-03-01T02:26:41.261Z,23.55
2019-03-01T02:29:09.700Z,26.97
2019-03-01T02:31:40.321Z,24.50
2019-03-01T02:34:08.827Z,23.00
2019-03-01T02:36:37.272Z,22.15
2019-03-01T02:39:05.724Z,19.67
2019-03-01T02:41:34.247Z,18.98
2019-03-01T02:44:02.695Z,24.50
2019-03-01T02:46:31.160Z,20.45
2019-03-01T02:48:59.673Z,17.65
2019-03-01T02:51:28.131Z,16.32
2019-03-01T02:53:56.511Z,19.00
2019-03-01T02:56:24.996Z,16.60
2019-03-01T02:58:53.448Z,19.57
2019-03-01T03:01:21.907Z,18.90
2019-03-01T03:03:50.422Z,18.05
2019-03-01T03:06:23.413Z,15.85
2019-03-01T03:08:51.870Z,16.05
2019-03-01T03:11:20.387Z,17.00
2019-03-01T03:13:48.827Z,15.85
2019-03-01T03:16:17.297Z,16.35
2019-03-01T03:18:45.844Z,14.53
2019-03-01T03:21:14.300Z,14.58
2019-03-01T03:23:42.750Z,16.97
2019-03-01T03:26:11.335Z,16.30
2019-03-01T03:28:39.843Z,14.23
2019-03-01T03:31:08.310Z,15.43
2019-03-01T03:33:36.840Z,15.30
2019-03-01T03:36:05.296Z,13.68
2019-03-01T03:38:33.758Z,12.93
2019-03-01T03:41:02.355Z,13.45
2019-03-01T03:43:30.763Z,11.55
2019-03-01T03:45:59.102Z,11.83
2019-03-01T03:48:27.639Z,14.85
2019-03-01T03:50:56.038Z,14.00
2019-03-01T03:53:24.451Z,13.72
2019-03-01T03:55:52.962Z,14.65
2019-03-01T03:58:21.360Z,15.05
2019-03-01T04:00:50.899Z,12.15
2019-03-01T04:03:19.376Z,11.25
2019-03-01T04:05:47.790Z,12.18
2019-03-01T04:08:16.334Z,12.07
2019-03-01T04:10:44.790Z,12.47
2019-03-01T04:13:13.302Z,10.10
2019-03-01T04:15:41.809Z,11.33
2019-03-01T04:18:10.189Z,11.38
2019-03-01T04:20:38.544Z,13.32
2019-03-01T04:23:06.990Z,13.08
2019-03-01T04:25:35.464Z,12.53
2019-03-01T04:28:03.882Z,11.68
2019-03-01T04:30:51.810Z,10.23
2019-03-01T04:33:20.167Z,11.20
2019-03-01T04:35:48.533Z,11.00
2019-03-01T04:38:17.061Z,10.98
2019-03-01T04:40:45.521Z,10.38
2019-03-01T04:43:13.981Z,10.68
2019-03-01T04:45:42.507Z,11.43
2019-03-01T04:48:10.982Z,10.35
2019-03-01T04:50:39.341Z,11.53
2019-03-01T04:53:07.854Z,9.58
2019-03-01T04:55:36.294Z,8.53
2019-03-01T04:58:04.843Z,9.08
2019-03-01T05:00:33.634Z,8.25
2019-03-01T05:03:02.127Z,8.78
2019-03-01T05:05:30.550Z,9.08
2019-03-01T05:07:59.061Z,10.05
2019-03-01T05:10:27.460Z,10.05
2019-03-01T05:12:56.064Z,11.65
2019-03-01T05:15:24.773Z,12.28
2019-03-01T05:17:53.209Z,9.98
2019-03-01T05:20:21.555Z,10.70
2019-03-01T05:22:49.901Z,9.05
2019-03-01T05:25:18.250Z,9.58
2019-03-01T05:27:46.710Z,9.95
2019-03-01T05:30:16.810Z,9.43
2019-03-01T05:32:45.163Z,9.30
2019-03-01T05:35:13.818Z,8.80
2019-03-01T05:37:42.240Z,7.67
2019-03-01T05:40:12.677Z,9.40
2019-03-01T05:42:41.126Z,10.72
2019-03-01T05:45:12.856Z,13.22
2019-03-01T05:47:41.434Z,13.18
2019-03-01T05:50:12.585Z,12.82
2019-03-01T05:52:40.997Z,11.05
2019-03-01T05:55:10.814Z,12.30
2019-03-01T05:57:59.131Z,16.17
2019-03-01T06:00:27.623Z,17.50
2019-03-01T06:03:05.216Z,17.12
2019-03-01T06:05:33.640Z,16.93
2019-03-01T06:08:11.056Z,21.02
2019-03-01T06:10:45.424Z,22.07
2019-03-01T06:13:31.828Z,25.75
2019-03-01T06:19:01.803Z,27.98
2019-03-01T06:22:07.098Z,22.62
2019-03-01T06:24:50.556Z,24.15
2019-03-01T06:27:48.261Z,22.93
2019-03-01T06:30:20.018Z,26.10
2019-03-01T06:33:20.518Z,24.45
2019-03-01T06:35:55.275Z,31.48
2019-03-01T06:39:03.340Z,35.00
2019-03-01T06:41:37.925Z,34.20
2019-03-01T06:44:41.712Z,35.70
2019-03-01T06:47:13.436Z,30.85
2019-03-01T06:49:49.432Z,30.37
2019-03-01T06:52:19.549Z,25.57
2019-03-01T06:54:48.000Z,25.85
2019-03-01T06:57:16.458Z,29.05
2019-03-01T06:59:44.915Z,33.60
2019-03-01T07:02:21.070Z,34.10
2019-03-01T07:04:49.413Z,31.07
2019-03-01T07:07:17.876Z,30.72
2019-03-01T07:09:46.359Z,28.35
2019-03-01T07:12:14.841Z,36.13
2019-03-01T07:14:43.188Z,34.33
2019-03-01T07:17:11.785Z,33.60
2019-03-01T07:19:40.172Z,28.50
2019-03-01T07:22:08.587Z,25.72
2019-03-01T07:24:37.006Z,29.18
2019-03-01T07:27:05.434Z,33.20
2019-03-01T07:29:33.935Z,35.78
2019-03-01T07:32:02.337Z,29.55
2019-03-01T07:34:30.807Z,31.93
2019-03-01T07:36:59.314Z,28.67
2019-03-01T07:39:27.765Z,24.65
2019-03-01T07:41:56.193Z,23.40
2019-03-01T07:44:25.620Z,27.27
2019-03-01T07:46:54.381Z,27.00
2019-03-01T07:49:22.824Z,26.07
2019-03-01T07:51:51.291Z,26.30
2019-03-01T07:54:22.159Z,20.97
2019-03-01T07:56:49.789Z,26.37
2019-03-01T07:59:18.088Z,29.25
2019-03-01T08:01:46.547Z,29.35
2019-03-01T08:04:15.012Z,27.42
2019-03-01T08:06:45.662Z,26.85
2019-03-01T08:09:13.939Z,27.62
2019-03-01T08:11:42.487Z,33.50
2019-03-01T08:14:10.999Z,35.48
2019-03-01T08:16:39.424Z,38.58
2019-03-01T08:19:07.945Z,37.70
2019-03-01T08:21:36.293Z,39.03
2019-03-01T08:24:07.652Z,40.08
2019-03-01T08:26:34.976Z,37.65
2019-03-01T08:29:03.586Z,39.73
2019-03-01T08:31:31.949Z,47.17
2019-03-01T08:34:00.372Z,45.92
2019-03-01T08:36:28.736Z,50.00
2019-03-01T08:38:57.097Z,48.55
2019-03-01T08:41:26.308Z,51.70
2019-03-01T08:43:54.834Z,45.35
2019-03-01T08:46:23.274Z,41.42
2019-03-01T08:48:51.826Z,41.13
2019-03-01T08:51:22.620Z,41.02
2019-03-01T08:53:51.054Z,45.65
2019-03-01T08:56:25.847Z,54.77
2019-03-01T08:58:49.806Z,53.48
2019-03-01T09:01:23.390Z,52.33
2019-03-01T09:03:55.209Z,48.02
2019-03-01T09:06:23.595Z,49.80
2019-03-01T09:08:51.902Z,44.55
2019-03-01T09:11:20.409Z,42.67
2019-03-01T09:13:48.989Z,42.93
2019-03-01T09:16:17.388Z,45.23
2019-03-01T09:18:46.577Z,44.83
2019-03-01T09:21:16.145Z,43.92
2019-03-01T09:23:47.786Z,38.20
2019-03-01T09:26:16.676Z,31.73
2019-03-01T09:28:44.862Z,29.20
2019-03-01T09:31:13.300Z,24.72
2019-03-01T09:33:41.783Z,23.30
2019-03-01T09:36:23.805Z,23.12
2019-03-01T09:38:52.333Z,21.85
2019-03-01T09:41:20.797Z,24.95
2019-03-01T09:43:49.096Z,27.22
2019-03-01T09:46:17.653Z,34.30
2019-03-01T09:48:49.427Z,33.58
2019-03-01T09:51:16.243Z,29.63
2019-03-01T09:53:44.774Z,28.57
2019-03-01T09:56:13.822Z,28.65
2019-03-01T09:58:42.326Z,26.80
2019-03-01T10:01:16.678Z,43.68
2019-03-01T10:03:45.587Z,51.88
2019-03-01T10:06:14.066Z,58.83
2019-03-01T10:08:42.503Z,56.37
2019-03-01T10:11:11.041Z,49.67
2019-03-01T10:13:39.430Z,49.00
2019-03-01T10:16:07.895Z,50.50
2019-03-01T10:18:36.500Z,47.78
2019-03-01T10:21:04.862Z,42.80
2019-03-01T10:23:33.301Z,38.48
2019-03-01T10:26:01.789Z,38.17
2019-03-01T10:28:30.263Z,34.15
2019-03-01T10:30:58.718Z,30.82
2019-03-01T10:33:28.342Z,30.88
2019-03-01T10:35:56.821Z,37.73
2019-03-01T10:38:25.252Z,47.93
2019-03-01T10:40:53.819Z,52.40
2019-03-01T10:43:23.534Z,49.90
2019-03-01T10:45:52.016Z,42.00
2019-03-01T10:48:20.484Z,50.65
2019-03-01T10:50:48.921Z,55.88
2019-03-01T10:53:17.374Z,51.15
2019-03-01T10:55:45.853Z,57.90
2019-03-01T10:58:14.212Z,49.00
2019-03-01T11:00:42.790Z,49.33
2019-03-01T11:03:11.161Z,45.30
2019-03-01T11:05:39.541Z,40.52
2019-03-01T11:08:08.948Z,39.67
2019-03-01T11:10:41.336Z,46.73
2019-03-01T11:13:15.121Z,52.15
2019-03-01T11:15:43.511Z,43.48
2019-03-01T11:18:11.875Z,40.12
2019-03-01T11:20:40.301Z,34.90
2019-03-01T11:23:08.755Z,37.83
2019-03-01T11:25:37.276Z,43.25
2019-03-01T11:28:05.649Z,55.28
2019-03-01T11:30:35.265Z,64.60
2019-03-01T11:33:03.726Z,54.67
2019-03-01T11:35:32.180Z,59.85
2019-03-01T11:38:00.639Z,60.80
2019-03-01T11:40:34.328Z,63.35
2019-03-01T11:43:02.805Z,59.80
2019-03-01T11:45:31.277Z,53.13
2019-03-01T11:47:59.798Z,48.60
2019-03-01T11:50:28.281Z,54.38
2019-03-01T11:52:56.682Z,60.15
2019-03-01T11:55:25.181Z,73.10
2019-03-01T11:57:53.514Z,74.07
2019-03-01T12:00:25.963Z,74.03
2019-03-01T12:02:54.555Z,61.98
2019-03-01T12:05:22.922Z,64.25
2019-03-01T12:07:51.389Z,58.73
2019-03-01T12:10:21.711Z,53.45
2019-03-01T12:12:50.161Z,65.52
2019-03-01T12:15:18.725Z,69.25
2019-03-01T12:17:47.133Z,61.70
2019-03-01T12:20:18.329Z,58.13
2019-03-01T12:22:46.809Z,52.25
2019-03-01T12:25:15.218Z,50.75
2019-03-01T12:27:43.637Z,46.95
2019-03-01T12:30:22.620Z,43.78
2019-03-01T12:32:50.977Z,40.08
2019-03-01T12:35:19.466Z,38.80
2019-03-01T12:37:47.997Z,36.33
2019-03-01T12:40:22.478Z,34.90
2019-03-01T12:42:50.866Z,45.85
2019-03-01T12:45:19.425Z,62.23
2019-03-01T12:47:47.918Z,57.93
2019-03-01T12:50:16.374Z,54.85
2019-03-01T12:52:44.866Z,51.80
2019-03-01T12:55:19.150Z,55.15
2019-03-01T12:57:47.490Z,44.38
2019-03-01T13:00:18.860Z,36.68
2019-03-01T13:02:47.254Z,31.05
2019-03-01T13:05:15.765Z,37.88
2019-03-01T13:07:44.126Z,34.50
2019-03-01T13:10:18.805Z,39.60
2019-03-01T13:12:48.341Z,40.65
2019-03-01T13:15:16.796Z,39.48
2019-03-01T13:17:45.241Z,39.67
2019-03-01T13:20:15.609Z,33.78
2019-03-01T13:22:44.077Z,36.58
2019-03-01T13:25:12.588Z,37.90
2019-03-01T13:27:42.483Z,42.23
2019-03-01T13:30:16.482Z,41.08
2019-03-01T13:32:44.990Z,40.05
2019-03-01T13:35:22.366Z,33.08
2019-03-01T13:37:51.913Z,37.33
2019-03-01T13:40:24.383Z,32.35
2019-03-01T13:42:52.113Z,32.28
2019-03-01T13:45:25.844Z,27.42
2019-03-01T13:47:54.216Z,35.00
2019-03-01T13:50:22.854Z,30.82
2019-03-01T13:52:51.349Z,33.83
2019-03-01T13:55:22.232Z,24.10
2019-03-01T13:57:51.285Z,26.10
2019-03-01T14:00:21.046Z,25.68
2019-03-01T14:02:49.498Z,19.52
2019-03-01T14:05:17.930Z,26.55
2019-03-01T14:07:46.858Z,26.97
2019-03-01T14:10:28.750Z,31.75
2019-03-01T14:12:58.210Z,22.90
2019-03-01T14:15:26.630Z,30.30
2019-03-01T14:18:00.372Z,24.30
2019-03-01T14:20:25.332Z,19.05
2019-03-01T14:22:53.774Z,17.17
2019-03-01T14:25:22.209Z,20.05
2019-03-01T14:27:52.791Z,25.65
2019-03-01T14:30:30.178Z,24.80
2019-03-01T14:32:57.789Z,23.95
2019-03-01T14:35:27.152Z,29.75
2019-03-01T14:37:55.860Z,26.30
2019-03-01T14:40:25.427Z,26.95
2019-03-01T14:42:53.811Z,31.85
2019-03-01T14:45:30.824Z,31.62
2019-03-01T14:48:07.053Z,31.20
2019-03-01T14:50:33.782Z,29.35
2019-03-01T14:53:03.152Z,28.30
2019-03-01T14:55:40.476Z,28.55
2019-03-01T14:58:12.318Z,28.27
2019-03-01T15:00:50.931Z,26.40
2019-03-01T15:03:26.237Z,28.30
2019-03-01T15:06:00.168Z,24.25
2019-03-01T15:08:28.528Z,26.27
2019-03-01T15:10:58.689Z,24.67
2019-03-01T15:13:31.452Z,28.70
2019-03-01T15:16:01.001Z,26.85
2019-03-01T15:18:32.440Z,28.75
2019-03-01T15:21:02.600Z,27.67
2019-03-01T15:23:31.310Z,29.50
2019-03-01T15:25:59.777Z,31.80
2019-03-01T15:28:28.244Z,30.75
2019-03-01T15:30:57.357Z,29.92
2019-03-01T15:33:25.822Z,27.00
2019-03-01T15:35:54.330Z,33.80
2019-03-01T15:38:23.813Z,32.93
2019-03-01T15:40:52.984Z,29.00
2019-03-01T15:43:21.449Z,25.35
2019-03-01T15:45:49.914Z,27.40
2019-03-01T15:48:18.414Z,31.65
2019-03-01T15:50:46.981Z,30.90
2019-03-01T15:53:15.424Z,29.70
2019-03-01T15:55:43.825Z,29.48
2019-03-01T15:58:12.400Z,28.92
2019-03-01T16:00:40.814Z,30.62
2019-03-01T16:03:15.406Z,29.63
2019-03-01T16:05:43.872Z,28.80
2019-03-01T16:08:12.328Z,31.33
2019-03-01T16:10:40.764Z,32.28
2019-03-01T16:13:12.008Z,32.67
2019-03-01T16:15:39.836Z,35.40
2019-03-01T16:18:08.398Z,33.60
2019-03-01T16:20:36.872Z,31.95
2019-03-01T16:23:05.376Z,36.55
2019-03-01T16:25:33.751Z,35.60
2019-03-01T16:28:02.202Z,31.27
2019-03-01T16:30:30.678Z,31.12
2019-03-01T16:32:59.046Z,28.05
2019-03-01T16:35:27.479Z,28.60
2019-03-01T16:37:57.848Z,27.62
2019-03-01T16:40:27.625Z,31.65
2019-03-01T16:42:56.102Z,27.27
2019-03-01T16:45:24.601Z,28.00
2019-03-01T16:47:53.033Z,32.80
2019-03-01T16:50:21.421Z,33.10
2019-03-01T16:52:49.959Z,34.18
2019-03-01T16:55:24.332Z,37.65
2019-03-01T16:58:05.971Z,36.17
2019-03-01T17:00:25.047Z,32.48
2019-03-01T17:03:02.833Z,30.35
2019-03-01T17:05:31.254Z,30.35
2019-03-01T17:08:04.966Z,33.48
2019-03-01T17:10:30.296Z,30.23
2019-03-01T17:12:59.676Z,29.52
2019-03-01T17:15:28.045Z,26.40
2019-03-01T17:17:56.528Z,32.33
2019-03-01T17:20:24.990Z,30.97
2019-03-01T17:22:53.425Z,29.90
2019-03-01T17:25:23.392Z,26.15
2019-03-01T17:27:52.072Z,29.50
2019-03-01T17:30:23.345Z,29.87
2019-03-01T17:32:51.917Z,27.40
2019-03-01T17:35:20.282Z,30.43
2019-03-01T17:37:48.764Z,29.67
2019-03-01T17:40:17.906Z,27.98
2019-03-01T17:42:46.361Z,26.65
2019-03-01T17:45:20.993Z,27.62
2019-03-01T17:47:48.159Z,23.57
2019-03-01T17:50:19.719Z,25.23
2019-03-01T17:52:48.173Z,22.62
2019-03-01T17:55:19.024Z,25.72
2019-03-01T17:57:47.558Z,29.02
2019-03-01T18:00:25.440Z,24.60
2019-03-01T18:02:53.299Z,27.85
2019-03-01T18:05:21.891Z,25.00
2019-03-01T18:07:50.273Z,22.37
2019-03-01T18:10:18.687Z,23.98
2019-03-01T18:12:47.160Z,25.30
2019-03-01T18:15:16.486Z,24.92
2019-03-01T18:17:44.869Z,23.90
2019-03-01T18:20:16.194Z,22.00
2019-03-01T18:22:44.484Z,20.08
2019-03-01T18:25:17.333Z,18.25
2019-03-01T18:27:45.740Z,19.70
2019-03-01T18:30:30.267Z,22.73
2019-03-01T18:32:58.736Z,20.37
2019-03-01T18:35:27.151Z,21.15
2019-03-01T18:37:56.077Z,19.60
2019-03-01T18:40:24.705Z,21.52
2019-03-01T18:42:53.210Z,26.10
2019-03-01T18:45:23.038Z,22.55
2019-03-01T18:47:51.730Z,24.45
2019-03-01T18:50:33.381Z,24.43
2019-03-01T18:53:04.003Z,21.27
2019-03-01T18:55:32.713Z,20.88
2019-03-01T18:58:01.309Z,20.77
2019-03-01T19:00:47.472Z,22.48
2019-03-01T19:03:15.935Z,22.42
2019-03-01T19:05:44.365Z,22.00
2019-03-01T19:08:12.811Z,20.65
2019-03-01T19:10:41.304Z,21.20
2019-03-01T19:13:15.185Z,21.48
2019-03-01T19:15:43.594Z,21.00
2019-03-01T19:18:16.831Z,18.48
2019-03-01T19:20:46.876Z,18.90
2019-03-01T19:23:15.426Z,23.42
2019-03-01T19:25:43.856Z,19.05
2019-03-01T19:28:12.301Z,17.73
2019-03-01T19:30:40.787Z,16.60
2019-03-01T19:33:09.288Z,15.40
2019-03-01T19:35:37.622Z,16.73
2019-03-01T19:38:06.161Z,17.40
2019-03-01T19:40:34.667Z,13.83
2019-03-01T19:43:03.073Z,19.42
2019-03-01T19:45:32.406Z,19.07
2019-03-01T19:48:03.000Z,19.40
2019-03-01T19:50:30.853Z,16.97
2019-03-01T19:52:59.338Z,17.20
2019-03-01T19:55:27.815Z,16.40
2019-03-01T19:57:56.284Z,15.50
2019-03-01T20:00:27.286Z,17.82
2019-03-01T20:02:55.763Z,24.67
2019-03-01T20:05:27.762Z,22.93
2019-03-01T20:07:56.949Z,29.92
2019-03-01T20:10:25.335Z,27.60
2019-03-01T20:12:53.793Z,26.85
2019-03-01T20:15:24.817Z,27.70
2019-03-01T20:17:53.641Z,27.67
2019-03-01T20:20:26.023Z,23.30
2019-03-01T20:22:55.296Z,21.73
2019-03-01T20:25:23.780Z,20.37
2019-03-01T20:27:52.263Z,20.23
2019-03-01T20:30:30.645Z,18.37
2019-03-01T20:32:59.418Z,22.02
2019-03-01T20:35:27.876Z,28.27
2019-03-01T20:38:00.135Z,24.50
2019-03-01T20:40:32.591Z,20.92
2019-03-01T20:43:07.070Z,20.55
2019-03-01T20:45:42.086Z,26.23
2019-03-01T20:48:16.237Z,32.45
2019-03-01T20:50:47.652Z,35.23
2019-03-01T20:53:17.432Z,37.17
2019-03-01T20:55:45.970Z,40.52
2019-03-01T20:58:14.403Z,35.85
2019-03-01T21:00:42.776Z,35.90
2019-03-01T21:03:11.362Z,36.00
2019-03-01T21:05:40.361Z,32.98
2019-03-01T21:08:09.129Z,39.03
2019-03-01T21:10:37.810Z,35.95
2019-03-01T21:13:08.696Z,33.08
2019-03-01T21:15:37.707Z,31.80
2019-03-01T21:18:07.197Z,26.68
2019-03-01T21:20:35.561Z,23.62
2019-03-01T21:23:04.184Z,22.48
2019-03-01T21:25:35.815Z,21.95
2019-03-01T21:28:03.065Z,25.20
2019-03-01T21:30:32.714Z,33.05
2019-03-01T21:33:01.190Z,39.70
2019-03-01T21:35:29.597Z,40.17
2019-03-01T21:37:58.066Z,37.67
2019-03-01T21:40:26.767Z,37.95
2019-03-01T21:42:57.222Z,35.35
2019-03-01T21:45:25.381Z,35.63
2019-03-01T21:47:53.857Z,34.15
2019-03-01T21:50:22.320Z,32.93
2019-03-01T21:52:50.739Z,30.62
2019-03-01T21:55:29.568Z,28.83
2019-03-01T21:57:58.299Z,27.35
2019-03-01T22:00:31.434Z,22.42
2019-03-01T22:03:00.005Z,32.93
2019-03-01T22:05:28.440Z,29.45
2019-03-01T22:07:56.889Z,32.33
2019-03-01T22:10:25.274Z,33.23
2019-03-01T22:12:57.016Z,27.65
2019-03-01T22:15:28.706Z,25.88
2019-03-01T22:17:57.273Z,25.20
2019-03-01T22:20:25.805Z,27.67
2019-03-01T22:22:54.235Z,25.02
2019-03-01T22:25:22.748Z,22.05
2019-03-01T22:27:51.247Z,24.18
2019-03-01T22:30:32.667Z,19.55
2019-03-01T22:33:01.190Z,20.90
2019-03-01T22:35:29.656Z,19.85
2019-03-01T22:38:01.158Z,18.50
2019-03-01T22:40:29.434Z,20.52
2019-03-01T22:42:58.090Z,22.42
2019-03-01T22:45:26.521Z,24.95
2019-03-01T22:47:54.983Z,26.60
2019-03-01T22:50:23.595Z,25.10
2019-03-01T22:52:52.003Z,27.07
2019-03-01T22:55:20.662Z,25.32
2019-03-01T22:57:49.121Z,23.95
2019-03-01T23:00:47.667Z,23.18
2019-03-01T23:03:18.839Z,46.00
2019-03-01T23:05:47.014Z,47.15
2019-03-01T23:08:15.560Z,51.00
2019-03-01T23:10:43.968Z,52.80
2019-03-01T23:13:12.355Z,56.20
2019-03-01T23:15:43.311Z,59.53
2019-03-01T23:18:10.774Z,57.17
2019-03-01T23:20:39.149Z,49.95
2019-03-01T23:23:07.742Z,49.85
2019-03-01T23:25:36.043Z,45.83
2019-03-01T23:28:08.145Z,45.00
2019-03-01T23:30:34.743Z,50.23
2019-03-01T23:33:03.237Z,54.33
2019-03-01T23:35:35.212Z,55.63
2019-03-01T23:38:03.816Z,44.58
2019-03-01T23:40:32.718Z,43.08
2019-03-01T23:43:02.183Z,46.73
2019-03-01T23:45:30.633Z,48.55
2019-03-01T23:47:58.980Z,49.90
2019-03-01T23:50:27.385Z,57.93
2019-03-01T23:52:58.821Z,53.73
2019-03-01T23:55:25.956Z,53.25
2019-03-01T23:57:54.290Z,50.75
